Time;durP1;ratioP1;P1;durP2;ratioP2;P2;SDS_P1;SDS_P2;PMS_P1;PMS_P2;Temp;Humidity;BMP_temperature;BMP_pressure;BME280_temperature;BME280_humidity;BME280_pressure;Samples;Min_cycle;Max_cycle;Signal;HPM_P1;HPM_P2
2023/06/03 00:02:02;;;;;;;;;;;;;;;16.89;100.00;94983.00;5136990;27;1055;-57
2023/06/03 00:04:31;;;;;;;;;;;;;;;16.76;100.00;94979.19;5136782;27;1052;-57
2023/06/03 00:06:57;;;;;;;;;;;;;;;16.73;100.00;94979.63;5136775;27;1665;-57
2023/06/03 00:09:23;;;;;;;;;;;;;;;16.64;100.00;94980.81;5136377;27;1053;-57
2023/06/03 00:11:49;;;;;;;;;;;;;;;16.39;100.00;94980.53;5136985;27;1009;-57
2023/06/03 00:14:15;;;;;;;;;;;;;;;16.46;100.00;94985.94;5136656;27;1906;-57
2023/06/03 00:16:48;;;;;;;;;;;;;;;16.67;100.00;94987.69;5136747;27;1036;-57
2023/06/03 00:19:14;;;;;;;;;;;;;;;16.70;100.00;94987.28;5136580;27;1105;-57
2023/06/03 00:21:49;;;;;;;;;;;;;;;16.69;100.00;94991.00;5136551;27;1043;-57
2023/06/03 00:24:15;;;;;;;;;;;;;;;16.79;100.00;94986.06;5136394;27;988;-57
2023/06/03 00:26:42;;;;;;;;;;;;;;;16.72;100.00;94990.59;5136574;27;1181;-57
2023/06/03 00:29:09;;;;;;;;;;;;;;;16.75;100.00;94990.19;5136619;27;1079;-57
2023/06/03 00:31:35;;;;;;;;;;;;;;;16.93;100.00;94986.94;5118344;27;1067;-58
2023/06/03 00:34:01;;;;;;;;;;;;;;;16.93;100.00;94981.56;5136110;27;1918;-57
2023/06/03 00:36:27;;;;;;;;;;;;;;;16.89;100.00;94991.94;5135598;27;973;-57
2023/06/03 00:38:53;;;;;;;;;;;;;;;16.98;100.00;94985.31;5136093;27;961;-57
2023/06/03 00:41:19;;;;;;;;;;;;;;;17.01;100.00;94986.75;5117826;27;1104;-58
2023/06/03 00:43:45;;;;;;;;;;;;;;;17.03;100.00;94981.16;5136042;27;1045;-57
2023/06/03 00:46:13;;;;;;;;;;;;;;;17.12;100.00;94966.41;5136108;27;1043;-58
2023/06/03 00:48:39;;;;;;;;;;;;;;;17.11;100.00;94964.75;5135840;27;1116;-58
2023/06/03 00:51:06;;;;;;;;;;;;;;;17.10;100.00;94963.09;5136197;27;1023;-57
2023/06/03 00:53:32;;;;;;;;;;;;;;;17.13;100.00;94959.97;5135837;27;1913;-58
2023/06/03 00:55:59;;;;;;;;;;;;;;;16.93;100.00;94958.06;5135758;27;1057;-58
2023/06/03 00:58:25;;;;;;;;;;;;;;;16.78;100.00;94955.50;5135866;27;1047;-57
2023/06/03 01:00:51;;;;;;;;;;;;;;;16.75;100.00;94957.78;5135797;27;1020;-58
2023/06/03 01:03:19;;;;;;;;;;;;;;;16.65;100.00;94955.47;5135478;27;1061;-58
2023/06/03 01:05:48;;;;;;;;;;;;;;;16.68;100.00;94956.97;5135910;27;973;-57
2023/06/03 01:08:21;;;;;;;;;;;;;;;16.52;100.00;94961.69;5135431;27;1286;-58
2023/06/03 01:10:54;;;;;;;;;;;;;;;16.59;100.00;94951.72;5135789;27;1049;-58
2023/06/03 01:13:24;;;;;;;;;;;;;;;16.57;100.00;94945.69;5135415;27;1914;-57
2023/06/03 01:15:53;;;;;;;;;;;;;;;16.58;100.00;94947.38;5135969;27;1028;-57
2023/06/03 01:18:19;;;;;;;;;;;;;;;16.63;100.00;94945.94;5135234;27;985;-57
2023/06/03 01:20:48;;;;;;;;;;;;;;;16.64;100.00;94944.88;5135050;27;1234;-58
2023/06/03 01:23:14;;;;;;;;;;;;;;;16.59;100.00;94937.41;5135483;27;1032;-58
2023/06/03 01:25:41;;;;;;;;;;;;;;;16.62;100.00;94936.16;5135426;27;1044;-57
2023/06/03 01:28:07;;;;;;;;;;;;;;;16.60;100.00;94933.69;5135376;27;1303;-57
2023/06/03 01:30:34;;;;;;;;;;;;;;;16.49;100.00;94932.41;5135143;27;1028;-57
2023/06/03 01:33:01;;;;;;;;;;;;;;;16.39;100.00;94929.28;5134883;27;1918;-58
2023/06/03 01:35:28;;;;;;;;;;;;;;;16.34;100.00;94935.25;5135295;27;1003;-57
2023/06/03 01:37:54;;;;;;;;;;;;;;;16.42;100.00;94930.72;5135248;27;1048;-57
2023/06/03 01:40:20;;;;;;;;;;;;;;;16.53;100.00;94930.97;5134840;27;1062;-57
2023/06/03 01:42:46;;;;;;;;;;;;;;;16.38;100.00;94914.09;5135024;27;981;-57
2023/06/03 01:45:12;;;;;;;;;;;;;;;16.33;100.00;94928.22;5134803;27;1045;-57
2023/06/03 01:47:38;;;;;;;;;;;;;;;16.37;100.00;94924.06;5134556;27;1231;-58
2023/06/03 01:50:05;;;;;;;;;;;;;;;16.34;100.00;94924.47;5134800;27;1286;-57
2023/06/03 01:52:31;;;;;;;;;;;;;;;16.28;100.00;94925.28;5134554;27;1984;-58
2023/06/03 01:54:57;;;;;;;;;;;;;;;16.26;100.00;94913.88;5135030;27;1052;-58
2023/06/03 01:57:23;;;;;;;;;;;;;;;16.28;100.00;94925.28;5134562;27;1057;-57
2023/06/03 01:59:49;;;;;;;;;;;;;;;16.23;100.00;94922.34;5134614;27;1296;-58
2023/06/03 02:02:15;;;;;;;;;;;;;;;16.23;100.00;94925.03;5134791;27;1061;-57
2023/06/03 02:04:44;;;;;;;;;;;;;;;16.24;100.00;94926.72;5134567;27;1003;-58
2023/06/03 02:07:11;;;;;;;;;;;;;;;16.24;100.00;94918.63;5134741;27;973;-58
2023/06/03 02:09:37;;;;;;;;;;;;;;;15.99;100.00;94919.16;5134783;27;1016;-58
2023/06/03 02:12:03;;;;;;;;;;;;;;;15.74;100.00;94924.19;5134637;27;1229;-58
2023/06/03 02:14:30;;;;;;;;;;;;;;;15.76;100.00;94922.16;5134548;27;1902;-58
2023/06/03 02:16:56;;;;;;;;;;;;;;;15.85;100.00;94922.81;5134627;27;1040;-57
2023/06/03 02:19:25;;;;;;;;;;;;;;;15.78;100.00;94925.47;5134309;27;1084;-58
2023/06/03 02:21:52;;;;;;;;;;;;;;;15.54;100.00;94928.59;5134553;27;1024;-58
2023/06/03 02:24:19;;;;;;;;;;;;;;;15.61;100.00;94921.38;5134175;27;1302;-59
2023/06/03 02:26:52;;;;;;;;;;;;;;;15.85;100.00;94928.19;5134408;27;1197;-58
2023/06/03 02:29:19;;;;;;;;;;;;;;;15.87;100.00;94918.03;5116131;28;1025;-57
2023/06/03 02:31:54;;;;;;;;;;;;;;;15.66;100.00;94918.09;5134096;28;961;-57
2023/06/03 02:34:21;;;;;;;;;;;;;;;15.49;100.00;94926.50;5134277;28;1965;-57
2023/06/03 02:36:47;;;;;;;;;;;;;;;15.35;100.00;94922.06;5134508;28;1032;-58
2023/06/03 02:39:14;;;;;;;;;;;;;;;15.38;100.00;94927.84;5134229;28;957;-58
2023/06/03 02:41:43;;;;;;;;;;;;;;;15.61;100.00;94929.47;5134254;28;1024;-57
2023/06/03 02:44:09;;;;;;;;;;;;;;;15.51;100.00;94937.91;5134390;28;1270;-58
2023/06/03 02:46:35;;;;;;;;;;;;;;;15.52;100.00;94933.38;5134041;28;1566;-57
2023/06/03 02:49:05;;;;;;;;;;;;;;;15.64;100.00;94934.47;5115841;28;1296;-57
2023/06/03 02:51:31;;;;;;;;;;;;;;;15.69;100.00;94944.63;5134273;28;1047;-57
2023/06/03 02:53:57;;;;;;;;;;;;;;;15.49;100.00;94950.75;5134291;28;1906;-58
2023/06/03 02:56:23;;;;;;;;;;;;;;;15.53;100.00;94951.19;5133974;28;973;-58
2023/06/03 02:58:50;;;;;;;;;;;;;;;15.61;100.00;94951.88;5133925;27;1127;-57
2023/06/03 03:01:17;;;;;;;;;;;;;;;15.60;100.00;94957.47;5137201;27;1885;-58
2023/06/03 03:03:43;;;;;;;;;;;;;;;15.59;100.00;94958.47;5138195;27;1027;-57
2023/06/03 03:06:14;;;;;;;;;;;;;;;15.58;100.00;94973.81;5138193;27;971;-58
2023/06/03 03:08:40;;;;;;;;;;;;;;;15.71;100.00;94973.06;5137970;27;1056;-58
2023/06/03 03:11:09;;;;;;;;;;;;;;;15.81;100.00;94962.78;5138096;27;1323;-58
2023/06/03 03:13:35;;;;;;;;;;;;;;;15.93;100.00;94964.94;5137596;27;1901;-57
2023/06/03 03:16:01;;;;;;;;;;;;;;;15.91;100.00;94961.63;5135845;27;1636;-58
2023/06/03 03:18:27;;;;;;;;;;;;;;;15.94;100.00;94958.53;5137730;27;1197;-58
2023/06/03 03:20:53;;;;;;;;;;;;;;;16.01;100.00;94970.16;5137479;27;1344;-58
2023/06/03 03:23:20;;;;;;;;;;;;;;;15.98;100.00;94975.97;5137748;27;1173;-58
2023/06/03 03:25:46;;;;;;;;;;;;;;;15.98;100.00;94979.50;5137563;27;1041;-58
2023/06/03 03:28:12;;;;;;;;;;;;;;;15.98;100.00;94984.88;5137401;27;1051;-58
2023/06/03 03:30:38;;;;;;;;;;;;;;;15.96;100.00;94981.56;5137614;27;1001;-59
2023/06/03 03:33:04;;;;;;;;;;;;;;;15.97;100.00;94991.31;5137488;27;1905;-58
2023/06/03 03:35:30;;;;;;;;;;;;;;;16.00;100.00;94984.69;5137409;27;1035;-57
2023/06/03 03:38:01;;;;;;;;;;;;;;;16.04;100.00;94993.22;5137679;27;1055;-57
2023/06/03 03:40:28;;;;;;;;;;;;;;;16.16;100.00;94992.47;5137280;27;992;-57
2023/06/03 03:42:55;;;;;;;;;;;;;;;16.23;99.95;94992.47;5137211;27;1069;-57
2023/06/03 03:45:22;;;;;;;;;;;;;;;16.23;99.16;94999.75;5137280;27;1020;-58
2023/06/03 03:47:49;;;;;;;;;;;;;;;16.25;99.30;94990.41;5137205;27;1048;-57
2023/06/03 03:50:34;;;;;;;;;;;;;;;16.29;100.00;94997.06;5116399;28;1100;-57
2023/06/03 03:53:03;;;;;;;;;;;;;;;16.34;100.00;94991.91;5116723;28;1985;-57
2023/06/03 03:55:29;;;;;;;;;;;;;;;16.40;100.00;94996.50;5116644;28;972;-58
2023/06/03 03:57:55;;;;;;;;;;;;;;;16.49;99.97;94999.03;5116364;28;1092;-57
2023/06/03 04:00:21;;;;;;;;;;;;;;;16.34;100.00;94999.19;5116332;28;1036;-57
2023/06/03 04:02:49;;;;;;;;;;;;;;;16.27;100.00;94998.31;5135496;27;1146;-58
2023/06/03 04:05:16;;;;;;;;;;;;;;;16.07;100.00;95004.44;5136298;27;1183;-58
2023/06/03 04:07:46;;;;;;;;;;;;;;;16.03;100.00;95002.31;5118569;27;1045;-58
2023/06/03 04:10:12;;;;;;;;;;;;;;;15.93;100.00;95002.69;5136906;27;976;-57
2023/06/03 04:12:39;;;;;;;;;;;;;;;16.05;100.00;95003.81;5135324;27;1901;-58
2023/06/03 04:15:06;;;;;;;;;;;;;;;16.23;100.00;95005.97;5136803;27;1056;-58
2023/06/03 04:17:35;;;;;;;;;;;;;;;16.33;100.00;95005.59;5136335;27;1067;-58
2023/06/03 04:20:05;;;;;;;;;;;;;;;16.40;100.00;95012.69;5136425;27;1106;-58
2023/06/03 04:22:32;;;;;;;;;;;;;;;16.36;100.00;95007.91;5136598;27;1141;-58
2023/06/03 04:25:01;;;;;;;;;;;;;;;16.44;100.00;95009.59;5136670;27;1053;-58
2023/06/03 04:27:27;;;;;;;;;;;;;;;16.45;100.00;95009.41;5136619;27;1005;-58
2023/06/03 04:29:53;;;;;;;;;;;;;;;16.39;100.00;95018.31;5136320;27;1538;-58
2023/06/03 04:32:19;;;;;;;;;;;;;;;16.31;100.00;95004.97;5136156;27;1989;-57
2023/06/03 04:34:49;;;;;;;;;;;;;;;16.37;100.00;95014.94;5136232;27;1184;-58
2023/06/03 04:37:15;;;;;;;;;;;;;;;16.49;100.00;95015.25;5136282;27;1283;-57
2023/06/03 04:39:41;;;;;;;;;;;;;;;16.46;100.00;95013.75;5136477;27;1036;-58
2023/06/03 04:42:07;;;;;;;;;;;;;;;16.50;100.00;95014.19;5136036;27;1036;-57
2023/06/03 04:44:34;;;;;;;;;;;;;;;16.42;100.00;95022.47;5135944;27;1025;-57
2023/06/03 04:47:00;;;;;;;;;;;;;;;16.25;100.00;95011.16;5135940;27;1061;-58
2023/06/03 04:49:27;;;;;;;;;;;;;;;16.29;100.00;95015.13;5136000;27;1048;-57
2023/06/03 04:51:53;;;;;;;;;;;;;;;16.18;100.00;95011.97;5135785;27;1029;-58
2023/06/03 04:54:23;;;;;;;;;;;;;;;16.14;100.00;95021.50;5135900;27;1992;-57
2023/06/03 04:56:50;;;;;;;;;;;;;;;16.20;100.00;95014.44;5135978;27;988;-57
2023/06/03 04:59:16;;;;;;;;;;;;;;;16.22;100.00;95012.41;5135873;27;1000;-58
2023/06/03 05:01:44;;;;;;;;;;;;;;;16.24;100.00;95018.44;5135603;27;1067;-57
2023/06/03 05:04:13;;;;;;;;;;;;;;;16.24;100.00;95022.97;5135827;27;1038;-58
2023/06/03 05:06:39;;;;;;;;;;;;;;;16.26;100.00;95021.78;5135393;27;1032;-58
2023/06/03 05:09:05;;;;;;;;;;;;;;;16.24;100.00;95026.53;5135802;27;1039;-57
2023/06/03 05:11:31;;;;;;;;;;;;;;;16.29;100.00;95023.22;5135387;27;1100;-57
2023/06/03 05:13:57;;;;;;;;;;;;;;;16.43;100.00;95027.66;5135649;27;1996;-57
2023/06/03 05:16:23;;;;;;;;;;;;;;;16.46;100.00;95029.13;5135456;27;993;-56
2023/06/03 05:18:49;;;;;;;;;;;;;;;16.35;100.00;95025.97;5135163;27;1318;-58
2023/06/03 05:21:19;;;;;;;;;;;;;;;16.44;100.00;95032.00;5135535;27;985;-57
2023/06/03 05:23:45;;;;;;;;;;;;;;;16.71;100.00;95035.69;5134942;27;1216;-57
2023/06/03 05:26:12;;;;;;;;;;;;;;;16.80;99.65;95036.31;5116887;27;1108;-58
2023/06/03 05:28:38;;;;;;;;;;;;;;;16.63;98.99;95038.53;5135424;27;977;-57
2023/06/03 05:31:03;;;;;;;;;;;;;;;16.49;100.00;95039.53;5135351;27;1020;-57
2023/06/03 05:33:30;;;;;;;;;;;;;;;16.53;100.00;95049.69;5134884;27;1890;-57
2023/06/03 05:35:56;;;;;;;;;;;;;;;16.65;100.00;95044.56;5135018;27;1033;-57
2023/06/03 05:38:22;;;;;;;;;;;;;;;16.74;100.00;95042.53;5135224;27;1038;-56
2023/06/03 05:40:49;;;;;;;;;;;;;;;16.83;100.00;95046.75;5134848;27;1088;-57
2023/06/03 05:43:15;;;;;;;;;;;;;;;16.71;98.12;95053.72;5134822;27;1112;-57
2023/06/03 05:45:41;;;;;;;;;;;;;;;16.75;100.00;95045.03;5134712;27;1108;-57
2023/06/03 05:48:08;;;;;;;;;;;;;;;16.81;98.89;95056.03;5134660;27;1036;-57
2023/06/03 05:50:36;;;;;;;;;;;;;;;16.79;100.00;95057.09;5134946;27;1273;-57
2023/06/03 05:53:02;;;;;;;;;;;;;;;16.73;100.00;95052.50;5134928;27;1994;-57
2023/06/03 05:55:29;;;;;;;;;;;;;;;16.75;100.00;95054.97;5134826;27;953;-56
2023/06/03 05:57:55;;;;;;;;;;;;;;;16.80;100.00;95052.50;5134697;27;1010;-57
2023/06/03 06:00:21;;;;;;;;;;;;;;;16.86;99.02;95059.00;5134420;27;1878;-57
2023/06/03 06:02:48;;;;;;;;;;;;;;;16.88;100.00;95063.16;5134569;27;1124;-56
2023/06/03 06:05:14;;;;;;;;;;;;;;;17.03;100.00;95060.31;5134442;27;1037;-57
2023/06/03 06:07:40;;;;;;;;;;;;;;;17.13;98.69;95071.56;5134458;27;1199;-57
2023/06/03 06:10:06;;;;;;;;;;;;;;;17.07;99.15;95066.97;5134759;27;1041;-57
2023/06/03 06:12:32;;;;;;;;;;;;;;;17.19;98.67;95059.13;5134254;27;1998;-57
2023/06/03 06:14:58;;;;;;;;;;;;;;;17.17;98.01;95064.72;5116144;27;1135;-57
2023/06/03 06:17:24;;;;;;;;;;;;;;;17.13;99.77;95068.88;5134214;27;1112;-57
2023/06/03 06:19:50;;;;;;;;;;;;;;;17.06;99.46;95068.00;5134127;27;1249;-57
2023/06/03 06:22:16;;;;;;;;;;;;;;;17.07;100.00;95063.44;5134078;27;1296;-58
2023/06/03 06:24:42;;;;;;;;;;;;;;;17.10;100.00;95063.84;5134590;27;1044;-57
2023/06/03 06:27:08;;;;;;;;;;;;;;;17.18;100.00;95060.13;5116104;28;1256;-57
2023/06/03 06:29:35;;;;;;;;;;;;;;;17.31;100.00;95062.88;5115873;28;1061;-57
2023/06/03 06:32:01;;;;;;;;;;;;;;;17.42;99.26;95068.72;5134121;28;1115;-57
2023/06/03 06:34:31;;;;;;;;;;;;;;;17.59;100.00;95064.56;5134524;27;1905;-57
2023/06/03 06:36:58;;;;;;;;;;;;;;;17.81;98.13;95059.78;5138914;27;1036;-57
2023/06/03 06:39:34;;;;;;;;;;;;;;;17.95;98.58;95060.66;5138365;27;1136;-57
2023/06/03 06:42:15;;;;;;;;;;;;;;;18.00;95.45;95057.31;5138372;27;1045;-57
2023/06/03 06:44:46;;;;;;;;;;;;;;;18.14;94.91;95061.69;5138169;27;1032;-57
2023/06/03 06:47:14;;;;;;;;;;;;;;;18.23;94.53;95063.13;5138425;27;1000;-57
2023/06/03 06:49:40;;;;;;;;;;;;;;;18.27;95.12;95071.66;5138275;27;1029;-58
2023/06/03 06:52:08;;;;;;;;;;;;;;;18.30;93.48;95057.69;5138533;27;965;-58
2023/06/03 06:54:34;;;;;;;;;;;;;;;18.33;95.81;95062.69;5138078;27;1910;-58
2023/06/03 06:57:00;;;;;;;;;;;;;;;18.30;96.63;95063.94;5138110;27;1057;-58
2023/06/03 06:59:26;;;;;;;;;;;;;;;18.27;94.42;95053.53;5137817;27;1883;-57
2023/06/03 07:01:52;;;;;;;;;;;;;;;18.41;95.49;95058.94;5138212;27;1044;-58
2023/06/03 07:04:18;;;;;;;;;;;;;;;18.59;95.42;95064.50;5138066;27;977;-57
2023/06/03 07:06:44;;;;;;;;;;;;;;;18.58;96.75;95064.72;5136950;27;1048;-58
2023/06/03 07:09:10;;;;;;;;;;;;;;;18.68;97.52;95060.50;5137757;27;1031;-58
2023/06/03 07:11:42;;;;;;;;;;;;;;;18.79;96.97;95067.13;5137709;27;1049;-57
2023/06/03 07:14:07;;;;;;;;;;;;;;;18.76;95.27;95067.53;5137734;27;1968;-57
2023/06/03 07:16:33;;;;;;;;;;;;;;;18.82;95.40;95074.88;5137893;27;1036;-58
2023/06/03 07:18:59;;;;;;;;;;;;;;;18.80;92.51;95076.97;5137644;27;1103;-58
2023/06/03 07:21:26;;;;;;;;;;;;;;;18.89;92.73;95075.69;5137711;27;1036;-57
2023/06/03 07:23:52;;;;;;;;;;;;;;;18.86;93.54;95078.81;5136732;27;1149;-57
2023/06/03 07:26:18;;;;;;;;;;;;;;;18.94;94.29;95079.63;5137439;27;1000;-57
2023/06/03 07:28:46;;;;;;;;;;;;;;;18.82;92.74;95085.69;5137623;27;1052;-57
2023/06/03 07:31:12;;;;;;;;;;;;;;;18.74;94.95;95088.59;5137564;27;961;-56
2023/06/03 07:33:48;;;;;;;;;;;;;;;18.63;93.04;95084.69;5137213;27;1905;-57
2023/06/03 07:36:14;;;;;;;;;;;;;;;18.64;95.23;95082.81;5137759;27;1035;-56
2023/06/03 07:38:55;;;;;;;;;;;;;;;18.68;93.69;95079.44;5137231;27;1100;-57
2023/06/03 07:41:40;;;;;;;;;;;;;;;18.65;98.29;95084.47;5137113;27;1099;-57
2023/06/03 07:44:10;;;;;;;;;;;;;;;18.70;96.75;95090.06;5137362;27;1032;-58
2023/06/03 07:46:38;;;;;;;;;;;;;;;18.81;93.58;95086.72;5136915;27;965;-57
2023/06/03 07:49:06;;;;;;;;;;;;;;;18.92;95.81;95091.47;5137097;27;1033;-58
2023/06/03 07:51:33;;;;;;;;;;;;;;;19.00;96.41;95079.56;5118562;27;1116;-58
2023/06/03 07:53:59;;;;;;;;;;;;;;;19.21;92.86;95089.25;5137057;27;1974;-57
2023/06/03 07:56:25;;;;;;;;;;;;;;;19.17;92.37;95090.75;5137053;27;949;-58
2023/06/03 07:58:51;;;;;;;;;;;;;;;19.45;94.18;95095.00;5136847;27;1036;-58
2023/06/03 08:01:17;;;;;;;;;;;;;;;19.41;91.36;95099.19;5136737;27;1024;-57
2023/06/03 08:03:43;;;;;;;;;;;;;;;19.68;90.74;95097.97;5136828;27;1652;-57
2023/06/03 08:06:10;;;;;;;;;;;;;;;19.98;88.64;95096.53;5136744;27;1096;-57
2023/06/03 08:08:36;;;;;;;;;;;;;;;20.17;88.38;95098.25;5136722;27;1037;-57
2023/06/03 08:11:03;;;;;;;;;;;;;;;20.27;85.98;95100.44;5137041;27;1020;-57
2023/06/03 08:13:29;;;;;;;;;;;;;;;20.62;83.58;95095.34;5136387;27;1910;-58
2023/06/03 08:15:55;;;;;;;;;;;;;;;20.72;81.51;95094.00;5136707;27;1036;-58
2023/06/03 08:18:30;;;;;;;;;;;;;;;20.88;85.37;95082.50;5136474;27;1019;-57
2023/06/03 08:21:00;;;;;;;;;;;;;;;20.78;85.77;95090.38;5136295;27;1049;-58
2023/06/03 08:23:26;;;;;;;;;;;;;;;20.95;87.27;95088.69;5136500;27;1220;-58
2023/06/03 08:25:52;;;;;;;;;;;;;;;21.19;85.85;95088.81;5136609;27;1046;-57
2023/06/03 08:28:18;;;;;;;;;;;;;;;21.27;85.41;95091.22;5136397;27;1031;-57
2023/06/03 08:30:44;;;;;;;;;;;;;;;21.53;83.04;95084.63;5136294;27;969;-58
2023/06/03 08:33:10;;;;;;;;;;;;;;;21.55;79.72;95085.22;5136165;27;1913;-57
2023/06/03 08:35:36;;;;;;;;;;;;;;;21.72;83.17;95085.41;5136388;27;1024;-57
2023/06/03 08:38:02;;;;;;;;;;;;;;;21.80;79.91;95092.41;5136370;27;1034;-58
2023/06/03 08:40:31;;;;;;;;;;;;;;;21.89;80.27;95090.16;5135987;27;1024;-58
2023/06/03 08:43:02;;;;;;;;;;;;;;;21.84;81.81;95088.97;5136034;27;1039;-58
2023/06/03 08:45:31;;;;;;;;;;;;;;;22.38;82.38;95091.66;5135960;27;1013;-58
2023/06/03 08:48:06;;;;;;;;;;;;;;;22.93;79.43;95090.44;5135933;27;1053;-58
2023/06/03 08:50:33;;;;;;;;;;;;;;;22.98;76.94;95095.19;5135750;27;1049;-57
2023/06/03 08:53:00;;;;;;;;;;;;;;;23.13;76.92;95090.09;5135750;27;1992;-58
2023/06/03 08:55:26;;;;;;;;;;;;;;;23.15;78.09;95093.41;5135680;27;1049;-57
2023/06/03 08:57:55;;;;;;;;;;;;;;;22.93;75.11;95089.63;5135295;27;1083;-58
2023/06/03 09:00:23;;;;;;;;;;;;;;;23.09;73.91;95082.63;5117368;27;1048;-58
2023/06/03 09:02:50;;;;;;;;;;;;;;;23.37;76.13;95077.22;5135570;27;948;-57
2023/06/03 09:05:16;;;;;;;;;;;;;;;23.55;71.12;95075.34;5135694;27;1024;-58
2023/06/03 09:07:43;;;;;;;;;;;;;;;23.31;67.77;95069.16;5135433;27;1316;-57
2023/06/03 09:10:10;;;;;;;;;;;;;;;23.65;70.29;95074.69;5135370;27;1049;-58
2023/06/03 09:12:37;;;;;;;;;;;;;;;23.50;69.44;95067.06;5135252;27;1909;-58
2023/06/03 09:15:04;;;;;;;;;;;;;;;23.68;68.89;95069.59;5117187;27;1061;-58
2023/06/03 09:17:30;;;;;;;;;;;;;;;24.02;71.09;95068.81;5135171;27;1104;-58
2023/06/03 09:19:59;;;;;;;;;;;;;;;24.11;70.25;95059.13;5135205;27;1117;-57
2023/06/03 09:22:26;;;;;;;;;;;;;;;24.17;70.29;95067.19;5135155;27;1156;-58
2023/06/03 09:24:52;;;;;;;;;;;;;;;24.04;63.34;95064.78;5135474;27;1009;-57
2023/06/03 09:27:18;;;;;;;;;;;;;;;24.14;63.95;95055.94;5134845;27;1093;-58
2023/06/03 09:29:44;;;;;;;;;;;;;;;24.16;64.23;95057.31;5135135;27;948;-58
2023/06/03 09:32:10;;;;;;;;;;;;;;;24.54;65.05;95054.91;5135309;27;1076;-58
2023/06/03 09:34:36;;;;;;;;;;;;;;;24.46;61.40;95055.31;5135288;27;1979;-58
2023/06/03 09:37:09;;;;;;;;;;;;;;;24.50;62.05;95057.28;5135070;27;1151;-58
2023/06/03 09:39:35;;;;;;;;;;;;;;;24.73;65.49;95050.00;5116837;27;1009;-57
2023/06/03 09:42:02;;;;;;;;;;;;;;;24.72;59.38;95051.09;5134926;27;1024;-58
2023/06/03 09:44:39;;;;;;;;;;;;;;;24.58;62.52;95052.53;5134741;27;1048;-58
2023/06/03 09:47:05;;;;;;;;;;;;;;;24.51;60.77;95050.78;5135072;27;980;-58
2023/06/03 09:49:31;;;;;;;;;;;;;;;24.54;64.98;95049.47;5134861;27;1024;-59
2023/06/03 09:51:57;;;;;;;;;;;;;;;24.67;65.35;95040.06;5134892;27;1052;-59
2023/06/03 09:54:23;;;;;;;;;;;;;;;24.73;65.80;95037.16;5134858;27;1913;-58
2023/06/03 09:56:51;;;;;;;;;;;;;;;25.02;62.95;95038.88;5116407;27;1270;-58
2023/06/03 09:59:25;;;;;;;;;;;;;;;25.08;60.45;95035.97;5134555;27;1040;-59
2023/06/03 10:01:52;;;;;;;;;;;;;;;25.37;63.58;95030.31;5116643;27;1035;-58
2023/06/03 10:04:22;;;;;;;;;;;;;;;25.31;60.61;95034.88;5116355;27;1163;-59
2023/06/03 10:07:05;;;;;;;;;;;;;;;25.44;62.73;95030.94;5134567;27;1104;-59
2023/06/03 10:09:31;;;;;;;;;;;;;;;25.44;60.51;95030.94;5134504;27;1084;-59
2023/06/03 10:11:57;;;;;;;;;;;;;;;25.52;60.42;95033.19;5134419;27;1085;-59
2023/06/03 10:14:26;;;;;;;;;;;;;;;25.53;63.17;95034.00;5116141;27;1905;-58
2023/06/03 10:17:02;;;;;;;;;;;;;;;25.70;61.41;95028.44;5134709;27;953;-58
2023/06/03 10:19:30;;;;;;;;;;;;;;;25.67;60.75;95028.97;5112645;28;1161;-58
2023/06/03 10:21:57;;;;;;;;;;;;;;;25.59;62.99;95027.53;5113895;28;1125;-58
2023/06/03 10:24:24;;;;;;;;;;;;;;;25.57;60.92;95024.19;5093726;28;1050;-58
2023/06/03 10:26:50;;;;;;;;;;;;;;;25.63;60.39;95025.06;5093654;28;965;-58
2023/06/03 10:29:16;;;;;;;;;;;;;;;25.80;62.28;95028.56;5093354;28;932;-58
2023/06/03 10:31:44;;;;;;;;;;;;;;;25.88;60.63;95027.25;5093567;28;1035;-60
2023/06/03 10:34:12;;;;;;;;;;;;;;;25.80;59.23;95031.28;5093280;28;1973;-59
2023/06/03 10:36:38;;;;;;;;;;;;;;;25.84;60.36;95029.69;5093170;28;1024;-59
2023/06/03 10:39:08;;;;;;;;;;;;;;;25.88;59.35;95030.00;5093300;28;1046;-60
2023/06/03 10:41:36;;;;;;;;;;;;;;;25.85;60.48;95036.78;5093491;28;1107;-60
2023/06/03 10:44:02;;;;;;;;;;;;;;;25.44;59.32;95039.16;5093230;28;1113;-59
2023/06/03 10:46:28;;;;;;;;;;;;;;;25.50;63.91;95046.31;5093135;28;1037;-59
2023/06/03 10:48:54;;;;;;;;;;;;;;;25.42;62.30;95049.53;5093524;28;1056;-59
2023/06/03 10:51:32;;;;;;;;;;;;;;;25.16;60.81;95056.56;5093552;28;1042;-58
2023/06/03 10:54:30;;;;;;;;;;;;;;;24.92;62.22;95061.47;5093291;28;1909;-59
2023/06/03 10:57:22;;;;;;;;;;;;;;;24.07;64.62;95080.66;5084613;28;1280;-58
2023/06/03 10:59:48;;;;;;;;;;;;;;;23.68;66.74;95077.78;5090906;28;1182;-58
2023/06/03 11:02:14;;;;;;;;;;;;;;;23.53;65.82;95078.31;5093209;28;1151;-58
2023/06/03 11:04:40;;;;;;;;;;;;;;;23.33;66.25;95080.66;5093077;28;1125;-59
2023/06/03 11:07:26;;;;;;;;;;;;;;;23.29;66.22;95082.22;5093080;28;1045;-59
2023/06/03 11:09:54;;;;;;;;;;;;;;;23.19;66.20;95072.75;5092861;28;1106;-59
2023/06/03 11:12:20;;;;;;;;;;;;;;;23.05;63.24;95074.13;5092833;28;1090;-58
2023/06/03 11:14:48;;;;;;;;;;;;;;;22.92;64.95;95077.06;5092899;28;1983;-58
2023/06/03 11:17:15;;;;;;;;;;;;;;;22.80;67.02;95075.19;5097254;28;1506;-59
2023/06/03 11:19:44;;;;;;;;;;;;;;;22.69;66.60;95083.38;5126468;27;1705;-59
2023/06/03 11:22:11;;;;;;;;;;;;;;;22.52;68.50;95073.22;5136959;27;1169;-58
2023/06/03 11:24:38;;;;;;;;;;;;;;;22.51;69.88;95073.44;5137717;27;968;-58
2023/06/03 11:27:15;;;;;;;;;;;;;;;22.49;69.43;95075.56;5137477;27;1050;-58
2023/06/03 11:29:43;;;;;;;;;;;;;;;22.50;69.07;95069.03;5137821;27;1027;-59
2023/06/03 11:32:18;;;;;;;;;;;;;;;22.38;72.24;95079.94;5137637;27;1033;-59
2023/06/03 11:34:45;;;;;;;;;;;;;;;22.22;73.83;95073.28;5137314;27;1902;-58
2023/06/03 11:37:13;;;;;;;;;;;;;;;22.17;73.69;95076.69;5137238;27;1041;-57
2023/06/03 11:39:57;;;;;;;;;;;;;;;22.14;74.48;95076.34;5137334;27;1037;-58
2023/06/03 11:42:23;;;;;;;;;;;;;;;22.10;76.05;95075.16;5137341;27;965;-58
2023/06/03 11:44:49;;;;;;;;;;;;;;;22.08;75.44;95075.38;5137257;27;952;-58
2023/06/03 11:47:15;;;;;;;;;;;;;;;22.16;75.15;95079.69;5137073;27;1191;-58
2023/06/03 11:49:42;;;;;;;;;;;;;;;22.12;73.39;95083.91;5119013;27;1300;-59
2023/06/03 11:52:09;;;;;;;;;;;;;;;22.11;73.36;95082.28;5119128;27;957;-58
2023/06/03 11:54:36;;;;;;;;;;;;;;;22.07;71.35;95087.34;5136821;27;1897;-57
2023/06/03 11:57:03;;;;;;;;;;;;;;;22.09;71.41;95079.78;5136902;27;1108;-57
2023/06/03 11:59:33;;;;;;;;;;;;;;;22.06;71.92;95082.97;5136994;27;973;-57
2023/06/03 12:02:08;;;;;;;;;;;;;;;22.17;71.96;95076.69;5137140;27;1048;-58
2023/06/03 12:04:34;;;;;;;;;;;;;;;22.30;74.25;95072.13;5137021;27;1032;-58
2023/06/03 12:07:01;;;;;;;;;;;;;;;22.41;71.44;95069.41;5136731;27;1096;-60
2023/06/03 12:09:28;;;;;;;;;;;;;;;22.56;72.08;95066.22;5136903;27;976;-59
2023/06/03 12:11:55;;;;;;;;;;;;;;;22.60;69.24;95056.50;5136571;27;1037;-59
2023/06/03 12:14:32;;;;;;;;;;;;;;;22.74;68.79;95062.50;5136774;27;1990;-59
2023/06/03 12:17:07;;;;;;;;;;;;;;;22.76;69.99;95057.63;5136764;27;1034;-59
2023/06/03 12:19:35;;;;;;;;;;;;;;;22.78;70.70;95055.53;5136456;27;1253;-58
2023/06/03 12:22:01;;;;;;;;;;;;;;;22.84;68.18;95050.16;5136409;27;1208;-59
2023/06/03 12:24:29;;;;;;;;;;;;;;;22.93;69.97;95051.44;5136400;27;1053;-58
2023/06/03 12:26:55;;;;;;;;;;;;;;;23.16;70.14;95050.59;5136484;27;1025;-59
2023/06/03 12:29:23;;;;;;;;;;;;;;;23.27;67.85;95063.34;5136351;27;1001;-59
2023/06/03 12:31:56;;;;;;;;;;;;;;;23.20;67.28;95062.66;5135623;27;1060;-59
2023/06/03 12:34:28;;;;;;;;;;;;;;;23.25;67.19;95064.69;5136062;27;1910;-58
2023/06/03 12:36:55;;;;;;;;;;;;;;;23.13;68.73;95068.25;5136211;27;1105;-58
2023/06/03 12:39:21;;;;;;;;;;;;;;;23.37;68.23;95062.72;5136361;27;1048;-58
2023/06/03 12:41:50;;;;;;;;;;;;;;;23.72;66.80;95065.28;5136361;27;1032;-58
2023/06/03 12:44:17;;;;;;;;;;;;;;;23.81;63.65;95065.75;5135938;27;1136;-59
2023/06/03 12:46:43;;;;;;;;;;;;;;;23.84;63.92;95062.50;5136224;27;1024;-58
2023/06/03 12:49:15;;;;;;;;;;;;;;;24.09;65.58;95066.75;5135909;27;1049;-59
2023/06/03 12:51:42;;;;;;;;;;;;;;;24.35;66.85;95062.53;5117401;27;1034;-58
2023/06/03 12:54:08;;;;;;;;;;;;;;;24.29;66.90;95069.81;5135755;27;1996;-59
2023/06/03 12:56:34;;;;;;;;;;;;;;;23.86;65.79;95070.47;5117452;27;976;-59